Time;durP1;ratioP1;P1;durP2;ratioP2;P2;SDS_P1;SDS_P2;PMS_P1;PMS_P2;Temp;Humidity;BMP_temperature;BMP_pressure;BME280_temperature;BME280_humidity;BME280_pressure;Samples;Min_cycle;Max_cycle;Signal;HPM_P1;HPM_P2
2023/10/23 00:00:24;;;;;;;6.22;5.63;;;9.10;99.90;;;;;;5004103;28;20034;-92
2023/10/23 00:02:49;;;;;;;5.15;4.75;;;9.00;99.90;;;;;;4997195;28;20404;-90
2023/10/23 00:05:15;;;;;;;7.05;4.35;;;9.00;99.90;;;;;;4995600;28;20105;-91
2023/10/23 00:07:41;;;;;;;5.22;4.82;;;9.00;99.90;;;;;;4985843;28;20097;-91
2023/10/23 00:10:07;;;;;;;6.07;5.47;;;8.90;99.90;;;;;;5006554;28;20046;-94
2023/10/23 00:12:33;;;;;;;4.97;4.53;;;9.00;99.90;;;;;;4985059;28;20034;-90
2023/10/23 00:14:59;;;;;;;6.97;5.30;;;8.90;99.90;;;;;;5003585;28;20896;-93
2023/10/23 00:17:25;;;;;;;5.93;5.32;;;8.70;99.90;;;;;;4999390;28;20062;-93
2023/10/23 00:19:50;;;;;;;4.47;4.07;;;8.70;99.90;;;;;;4997521;28;20030;-91
2023/10/23 00:22:16;;;;;;;11.05;6.78;;;8.70;99.90;;;;;;4989478;28;20571;-91
2023/10/23 00:24:42;;;;;;;5.43;5.03;;;8.70;99.90;;;;;;4998094;28;20026;-90
2023/10/23 00:27:07;;;;;;;4.50;4.13;;;8.70;99.90;;;;;;5005386;28;20097;-92
2023/10/23 00:29:33;;;;;;;5.65;4.72;;;8.60;99.90;;;;;;4996769;28;20030;-90
2023/10/23 00:31:58;;;;;;;4.28;3.88;;;8.60;99.90;;;;;;5017265;28;20022;-92
2023/10/23 00:34:24;;;;;;;5.25;4.53;;;8.70;99.90;;;;;;4999620;28;20027;-93
2023/10/23 00:36:50;;;;;;;5.00;4.03;;;8.70;99.90;;;;;;5001780;28;20026;-91
2023/10/23 00:39:15;;;;;;;6.45;5.85;;;8.70;99.90;;;;;;4980694;28;20026;-93
2023/10/23 00:41:42;;;;;;;5.70;5.10;;;8.70;99.90;;;;;;5000817;28;20026;-91
2023/10/23 00:44:08;;;;;;;5.68;5.07;;;8.70;99.90;;;;;;4994568;28;20018;-90
2023/10/23 00:46:33;;;;;;;5.30;4.82;;;8.70;99.90;;;;;;5020323;28;20126;-91
2023/10/23 00:49:00;;;;;;;5.47;4.85;;;8.70;99.90;;;;;;5009515;28;20516;-92
2023/10/23 00:51:27;;;;;;;5.47;5.07;;;8.80;99.90;;;;;;5004088;28;20053;-94
2023/10/23 00:53:54;;;;;;;4.93;4.53;;;8.80;99.90;;;;;;5010979;28;20058;-91
2023/10/23 00:56:19;;;;;;;5.40;4.90;;;8.80;99.90;;;;;;4999418;28;20026;-91
2023/10/23 00:58:46;;;;;;;4.10;3.70;;;8.80;99.90;;;;;;4997550;28;20073;-94
2023/10/23 01:01:12;;;;;;;5.50;5.00;;;8.60;99.90;;;;;;4985505;28;20532;-93
2023/10/23 01:03:42;;;;;;;6.38;5.78;;;8.60;99.90;;;;;;5020994;28;20018;-91
2023/10/23 01:06:09;;;;;;;5.47;4.97;;;8.60;99.90;;;;;;5020492;28;20049;-92
2023/10/23 01:08:35;;;;;;;5.55;5.05;;;8.50;99.90;;;;;;5014065;28;20090;-93
2023/10/23 01:11:01;;;;;;;5.43;5.03;;;8.50;99.90;;;;;;5008289;28;20593;-92
2023/10/23 01:13:27;;;;;;;4.95;4.10;;;8.60;99.90;;;;;;5011387;28;20053;-91
2023/10/23 01:15:53;;;;;;;5.43;4.95;;;8.60;99.90;;;;;;5009259;28;20023;-92
2023/10/23 01:18:19;;;;;;;4.47;4.05;;;8.60;99.90;;;;;;5015086;28;20014;-91
2023/10/23 01:20:46;;;;;;;5.30;4.80;;;8.50;99.90;;;;;;5000160;28;20022;-90
2023/10/23 01:23:12;;;;;;;5.57;2.65;;;8.40;99.90;;;;;;4981792;28;20400;-91
2023/10/23 01:25:38;;;;;;;5.65;5.15;;;8.40;99.90;;;;;;4997806;28;20030;-92
2023/10/23 01:28:04;;;;;;;4.38;3.92;;;8.30;99.90;;;;;;5017053;28;20018;-91
2023/10/23 01:30:30;;;;;;;4.13;3.72;;;8.30;99.90;;;;;;4996992;28;20030;-91
2023/10/23 01:32:57;;;;;;;4.78;4.32;;;8.30;99.90;;;;;;5004433;28;20074;-92
2023/10/23 01:35:22;;;;;;;5.28;4.88;;;8.30;99.90;;;;;;4996809;28;20023;-92
2023/10/23 01:37:48;;;;;;;3.47;3.17;;;8.20;99.90;;;;;;4980971;28;20101;-92
2023/10/23 01:40:14;;;;;;;5.05;4.35;;;8.10;99.90;;;;;;4999246;28;20023;-92
2023/10/23 01:42:43;;;;;;;6.47;5.82;;;8.10;99.90;;;;;;4993770;28;20032;-92
2023/10/23 01:45:09;;;;;;;6.00;5.47;;;8.00;99.90;;;;;;5019169;28;20022;-90
2023/10/23 01:47:34;;;;;;;4.38;3.97;;;8.00;99.90;;;;;;5005479;28;20037;-93
2023/10/23 01:50:00;;;;;;;6.55;4.22;;;8.00;99.90;;;;;;4999320;28;20022;-92
2023/10/23 01:52:26;;;;;;;5.85;5.25;;;7.90;99.90;;;;;;4986864;28;20022;-90
2023/10/23 01:54:52;;;;;;;4.18;3.90;;;7.90;99.90;;;;;;4981225;28;20444;-92
2023/10/23 01:57:19;;;;;;;4.28;3.88;;;7.90;99.90;;;;;;4976669;28;20147;-90
2023/10/23 01:59:45;;;;;;;3.80;2.63;;;7.90;99.90;;;;;;4999433;28;20430;-91
2023/10/23 02:02:11;;;;;;;3.95;3.65;;;7.80;99.90;;;;;;5004368;28;20522;-90
2023/10/23 02:04:39;;;;;;;6.38;5.88;;;7.80;99.90;;;;;;5003966;28;20025;-91
2023/10/23 02:07:04;;;;;;;;;;;7.70;99.90;;;;;;5007151;28;20444;-91
2023/10/23 02:09:32;;;;;;;6.30;5.78;;;7.70;99.90;;;;;;5006698;28;19938;-91
2023/10/23 02:11:58;;;;;;;5.18;4.72;;;7.70;99.90;;;;;;4999013;28;20037;-92
2023/10/23 02:14:24;;;;;;;3.72;3.10;;;7.70;99.90;;;;;;5005571;28;20441;-91
2023/10/23 02:16:49;;;;;;;5.72;4.50;;;7.70;99.90;;;;;;5010719;28;20025;-91
2023/10/23 02:19:15;;;;;;;5.78;5.38;;;7.60;99.90;;;;;;5021779;28;20052;-92
2023/10/23 02:21:44;;;;;;;5.82;5.43;;;7.60;99.90;;;;;;5003498;28;20030;-92
2023/10/23 02:24:10;;;;;;;5.05;4.68;;;7.60;99.90;;;;;;4984177;28;20037;-91
2023/10/23 02:26:36;;;;;;;5.57;4.32;;;7.60;99.90;;;;;;4989277;28;20057;-91
2023/10/23 02:29:01;;;;;;;4.97;4.63;;;7.60;99.90;;;;;;5007612;28;20507;-91
2023/10/23 02:31:27;;;;;;;6.30;4.82;;;7.60;99.90;;;;;;4994192;28;20037;-93
2023/10/23 02:33:53;;;;;;;6.72;5.25;;;7.50;99.90;;;;;;5019380;28;20018;-89
2023/10/23 02:36:19;;;;;;;4.78;4.22;;;7.40;99.90;;;;;;5007104;28;20061;-94
2023/10/23 02:38:44;;;;;;;4.53;4.22;;;7.30;99.90;;;;;;5012147;28;20049;-89
2023/10/23 02:41:10;;;;;;;4.78;4.35;;;7.30;99.90;;;;;;5017536;28;20014;-90
2023/10/23 02:43:36;;;;;;;5.07;4.68;;;7.30;99.90;;;;;;5015676;28;20099;-91
2023/10/23 02:46:04;;;;;;;5.75;5.35;;;7.30;99.90;;;;;;5007448;28;20121;-91
2023/10/23 02:48:30;;;;;;;5.28;4.40;;;7.20;99.90;;;;;;5016466;28;20041;-93
2023/10/23 02:50:57;;;;;;;4.63;4.22;;;7.20;99.90;;;;;;5002374;28;20030;-92
2023/10/23 02:53:23;;;;;;;4.72;4.35;;;7.30;99.90;;;;;;5001278;28;20026;-91
2023/10/23 02:55:49;;;;;;;4.85;4.22;;;7.30;99.90;;;;;;5011988;28;20045;-91
2023/10/23 02:58:15;;;;;;;5.90;5.50;;;7.40;99.90;;;;;;5008398;28;20151;-89
2023/10/23 03:00:42;;;;;;;5.18;4.60;;;7.40;99.90;;;;;;5000970;28;20096;-91
2023/10/23 03:03:09;;;;;;;5.78;4.13;;;7.40;99.90;;;;;;4997716;28;20228;-91
2023/10/23 03:05:34;;;;;;;5.57;5.07;;;7.40;99.90;;;;;;4990844;28;20041;-92
2023/10/23 03:08:00;;;;;;;4.50;4.20;;;7.30;99.90;;;;;;4999648;28;20019;-91
2023/10/23 03:10:26;;;;;;;6.22;5.82;;;7.30;99.90;;;;;;5009169;28;20030;-91
2023/10/23 03:12:52;;;;;;;4.75;4.20;;;7.30;99.90;;;;;;5022290;28;20037;-91
2023/10/23 03:15:18;;;;;;;4.45;4.10;;;7.20;99.90;;;;;;4999293;28;20022;-90
2023/10/23 03:17:44;;;;;;;4.47;4.03;;;7.30;99.90;;;;;;4995488;28;20063;-91
2023/10/23 03:20:11;;;;;;;5.35;4.95;;;7.20;99.90;;;;;;4993896;28;20053;-93
2023/10/23 03:22:37;;;;;;;5.60;3.35;;;7.20;99.90;;;;;;5016812;28;20527;-94
2023/10/23 03:25:03;;;;;;;5.15;4.72;;;7.10;99.90;;;;;;5031111;28;20044;-95
2023/10/23 03:27:29;;;;;;;4.65;4.32;;;7.00;99.90;;;;;;5027933;28;20026;-92
2023/10/23 03:29:55;;;;;;;6.22;5.78;;;7.10;99.90;;;;;;5027345;28;20018;-95
2023/10/23 03:32:20;;;;;;;5.32;4.82;;;7.00;99.90;;;;;;5034740;28;20026;-91
2023/10/23 03:34:46;;;;;;;5.10;4.72;;;7.00;99.90;;;;;;5019476;28;20476;-90
2023/10/23 03:37:12;;;;;;;4.57;4.28;;;6.90;99.90;;;;;;5016944;28;20026;-91
2023/10/23 03:39:37;;;;;;;5.30;4.90;;;6.90;99.90;;;;;;5010508;28;20076;-91
2023/10/23 03:42:03;;;;;;;4.60;4.22;;;6.90;99.90;;;;;;4999399;28;20057;-90
2023/10/23 03:44:29;;;;;;;5.40;4.93;;;6.80;99.90;;;;;;5005491;28;20030;-91
2023/10/23 03:46:54;;;;;;;5.38;4.93;;;6.80;99.90;;;;;;4994808;28;20065;-90
2023/10/23 03:49:20;;;;;;;5.40;4.95;;;6.80;99.90;;;;;;4995457;28;20022;-91
2023/10/23 03:51:46;;;;;;;5.32;4.88;;;6.80;99.90;;;;;;4995687;28;20048;-93
2023/10/23 03:54:11;;;;;;;5.82;5.32;;;6.80;99.90;;;;;;4997286;28;20037;-91
2023/10/23 03:56:38;;;;;;;6.63;6.22;;;6.90;99.90;;;;;;5001072;28;20069;-92
2023/10/23 03:59:07;;;;;;;5.88;5.32;;;7.00;99.90;;;;;;4979081;28;20027;-92
2023/10/23 04:01:33;;;;;;;5.40;5.00;;;7.00;99.90;;;;;;5016116;28;20057;-90
2023/10/23 04:03:58;;;;;;;5.68;5.28;;;6.90;99.90;;;;;;5016186;28;20025;-91
2023/10/23 04:06:24;;;;;;;5.53;5.03;;;6.70;99.90;;;;;;5013609;28;20057;-90
2023/10/23 04:08:53;;;;;;;4.60;4.25;;;6.70;99.90;;;;;;4996151;28;20074;-90
2023/10/23 04:11:18;;;;;;;5.40;4.95;;;6.60;99.90;;;;;;4976955;28;20019;-91
2023/10/23 04:13:44;;;;;;;5.25;4.85;;;6.60;99.90;;;;;;4979831;28;20161;-90
2023/10/23 04:16:10;;;;;;;5.70;4.80;;;6.60;99.90;;;;;;4994023;28;20172;-92
2023/10/23 04:18:35;;;;;;;6.43;5.82;;;6.60;99.90;;;;;;4985711;28;20088;-90
2023/10/23 04:21:05;;;;;;;6.10;5.68;;;6.50;99.90;;;;;;4997392;28;20023;-91
2023/10/23 04:23:32;;;;;;;5.15;4.78;;;6.50;99.90;;;;;;4997002;28;20091;-92
2023/10/23 04:25:57;;;;;;;5.95;5.60;;;6.40;99.90;;;;;;4986791;28;20022;-90
2023/10/23 04:28:23;;;;;;;6.20;5.80;;;6.40;99.90;;;;;;4996134;28;20537;-92
2023/10/23 04:30:49;;;;;;;5.65;5.25;;;6.40;99.90;;;;;;4991132;28;20033;-91
2023/10/23 04:33:16;;;;;;;6.55;6.13;;;6.40;99.90;;;;;;4998634;28;20033;-92
2023/10/23 04:35:43;;;;;;;5.88;5.38;;;6.30;99.90;;;;;;5015458;28;20523;-91
2023/10/23 04:38:08;;;;;;;6.53;5.03;;;6.40;99.90;;;;;;5000877;28;20023;-90
2023/10/23 04:40:34;;;;;;;5.63;5.18;;;6.40;99.90;;;;;;4999099;28;20034;-91
2023/10/23 04:43:00;;;;;;;5.60;5.10;;;6.30;99.90;;;;;;4991879;28;20030;-91
2023/10/23 04:45:25;;;;;;;4.55;4.15;;;6.30;99.90;;;;;;4991595;28;20720;-92
2023/10/23 04:47:51;;;;;;;4.40;3.47;;;6.30;99.90;;;;;;5008065;28;20033;-89
2023/10/23 04:50:17;;;;;;;6.80;6.35;;;6.30;99.90;;;;;;4998192;28;20034;-88
2023/10/23 04:52:43;;;;;;;7.65;5.63;;;6.30;99.90;;;;;;4996043;28;20053;-89
2023/10/23 04:55:09;;;;;;;7.75;7.03;;;6.30;99.90;;;;;;5000840;28;20084;-90
2023/10/23 04:57:40;;;;;;;6.85;6.30;;;6.30;99.90;;;;;;5000315;28;20041;-91
2023/10/23 05:00:06;;;;;;;6.57;5.97;;;6.20;99.90;;;;;;5009957;28;20026;-90
2023/10/23 05:02:32;;;;;;;7.22;6.70;;;6.30;99.90;;;;;;5009012;28;20101;-92
2023/10/23 05:05:06;;;;;;;5.97;5.43;;;6.30;99.90;;;;;;5002714;28;20057;-91
2023/10/23 05:07:31;;;;;;;16.90;10.40;;;6.40;99.90;;;;;;5011866;28;20026;-89
2023/10/23 05:09:57;;;;;;;8.98;7.45;;;6.30;99.90;;;;;;5006121;28;20112;-90
2023/10/23 05:12:23;;;;;;;6.68;4.10;;;6.40;99.90;;;;;;4980946;28;20301;-91
2023/10/23 05:14:48;;;;;;;9.10;8.20;;;6.40;99.90;;;;;;4984457;28;20031;-91
2023/10/23 05:17:15;;;;;;;9.75;7.05;;;6.40;99.90;;;;;;4986684;28;20066;-90
2023/10/23 05:19:41;;;;;;;8.70;7.90;;;6.50;99.90;;;;;;4983282;28;20194;-91
2023/10/23 05:22:07;;;;;;;6.75;6.18;;;6.50;99.90;;;;;;4986586;28;20080;-93
2023/10/23 05:24:32;;;;;;;6.72;5.30;;;6.50;99.90;;;;;;4985673;28;20041;-95
2023/10/23 05:26:59;;;;;;;6.28;5.78;;;6.50;99.90;;;;;;4988763;28;20034;-92
2023/10/23 05:29:25;;;;;;;7.70;7.00;;;6.50;99.90;;;;;;4988056;28;20056;-93
2023/10/23 05:31:51;;;;;;;15.40;13.93;;;6.50;99.90;;;;;;4994337;28;20022;-93
2023/10/23 05:34:16;;;;;;;10.75;9.25;;;6.50;99.90;;;;;;4987549;28;20035;-91
2023/10/23 05:36:42;;;;;;;7.15;6.45;;;6.50;99.90;;;;;;4985678;28;20034;-92
2023/10/23 05:39:08;;;;;;;9.05;8.35;;;6.50;99.90;;;;;;4989047;28;20034;-94
2023/10/23 05:41:33;;;;;;;12.77;9.23;;;6.50;99.90;;;;;;4984488;28;20027;-92
2023/10/23 05:43:59;;;;;;;15.98;10.27;;;6.50;99.90;;;;;;4970352;28;20057;-91
2023/10/23 05:46:25;;;;;;;12.88;7.25;;;6.50;99.90;;;;;;4973420;28;20030;-92
2023/10/23 05:48:50;;;;;;;20.85;15.15;;;6.60;99.90;;;;;;4988088;28;20077;-91
2023/10/23 05:51:16;;;;;;;10.85;7.60;;;6.50;99.90;;;;;;4985277;28;20049;-90
2023/10/23 05:53:41;;;;;;;6.38;4.88;;;6.50;99.90;;;;;;4987394;28;20030;-92
2023/10/23 05:56:07;;;;;;;9.35;7.25;;;6.50;99.90;;;;;;4992881;28;20289;-91
2023/10/23 05:58:34;;;;;;;11.43;10.32;;;6.50;99.90;;;;;;5003419;28;20389;-91
2023/10/23 06:01:12;;;;;;;9.27;8.35;;;6.60;99.90;;;;;;5005967;28;20022;-91
2023/10/23 06:03:38;;;;;;;13.60;12.13;;;6.60;99.90;;;;;;4986374;28;20023;-89
2023/10/23 06:06:04;;;;;;;8.68;7.95;;;6.60;99.90;;;;;;4990527;28;20536;-90
2023/10/23 06:08:30;;;;;;;10.18;9.38;;;6.70;99.90;;;;;;5000203;28;20035;-91
2023/10/23 06:10:56;;;;;;;7.38;6.57;;;6.60;99.90;;;;;;5016586;28;20646;-91
2023/10/23 06:13:22;;;;;;;7.20;6.60;;;6.70;99.90;;;;;;5017086;28;20030;-89
2023/10/23 06:15:48;;;;;;;10.80;9.90;;;6.70;99.90;;;;;;5016733;28;20034;-91
2023/10/23 06:18:14;;;;;;;7.55;7.00;;;6.80;99.90;;;;;;5014374;28;20025;-91
2023/10/23 06:20:42;;;;;;;7.50;6.95;;;6.80;99.90;;;;;;4998021;28;20026;-91
2023/10/23 06:23:07;;;;;;;7.25;6.60;;;6.90;99.90;;;;;;4997639;28;20101;-90
2023/10/23 06:25:33;;;;;;;8.77;4.93;;;6.90;99.90;;;;;;5006162;28;20515;-91
2023/10/23 06:27:59;;;;;;;8.50;7.15;;;6.90;99.90;;;;;;4994961;28;20029;-90
2023/10/23 06:30:25;;;;;;;9.80;9.00;;;6.90;99.90;;;;;;5013839;28;20018;-91
2023/10/23 06:32:51;;;;;;;8.30;6.97;;;6.90;99.90;;;;;;5017719;28;20480;-89
2023/10/23 06:35:20;;;;;;;7.78;5.85;;;6.90;99.90;;;;;;4988428;28;20053;-91
2023/10/23 06:37:48;;;;;;;9.82;6.90;;;6.90;99.90;;;;;;4994544;28;20088;-91
2023/10/23 06:40:14;;;;;;;5.35;4.80;;;6.90;99.90;;;;;;4999126;28;20078;-92
2023/10/23 06:42:39;;;;;;;6.63;6.13;;;6.90;99.90;;;;;;5014617;28;20057;-92
2023/10/23 06:45:06;;;;;;;8.75;6.78;;;7.00;99.90;;;;;;5007365;28;20505;-92
2023/10/23 06:47:32;;;;;;;6.93;5.35;;;7.00;99.90;;;;;;4998840;28;20147;-91
2023/10/23 06:49:59;;;;;;;6.47;5.78;;;7.10;99.90;;;;;;4996533;28;20030;-91
2023/10/23 06:52:25;;;;;;;7.70;6.80;;;7.10;99.90;;;;;;4997568;28;20082;-90
2023/10/23 06:54:51;;;;;;;11.45;6.03;;;7.10;99.90;;;;;;4989996;28;20031;-89
2023/10/23 06:57:16;;;;;;;6.68;6.07;;;7.10;99.90;;;;;;4992393;28;20118;-90
2023/10/23 06:59:42;;;;;;;7.75;4.90;;;7.10;99.90;;;;;;4999859;28;20096;-91
2023/10/23 07:02:09;;;;;;;6.43;5.95;;;7.20;99.90;;;;;;4998350;28;20053;-90
2023/10/23 07:04:34;;;;;;;6.13;5.53;;;7.20;99.90;;;;;;5003085;28;20054;-90
2023/10/23 07:07:03;;;;;;;8.13;6.07;;;7.30;99.90;;;;;;4997963;28;20030;-93
2023/10/23 07:09:31;;;;;;;6.15;5.45;;;7.30;99.90;;;;;;5009234;28;20022;-91
2023/10/23 07:11:58;;;;;;;6.60;5.93;;;7.30;99.90;;;;;;4996892;28;20046;-91
2023/10/23 07:14:24;;;;;;;5.15;4.72;;;7.30;99.90;;;;;;5001961;28;20025;-90
2023/10/23 07:16:50;;;;;;;6.47;5.90;;;7.30;99.90;;;;;;5010341;28;20108;-92
2023/10/23 07:19:15;;;;;;;7.07;6.57;;;7.40;99.90;;;;;;5008137;28;20115;-91
2023/10/23 07:21:41;;;;;;;6.47;5.75;;;7.40;99.90;;;;;;5011042;28;20041;-91
2023/10/23 07:24:07;;;;;;;7.15;6.55;;;7.50;99.90;;;;;;5015658;28;20057;-91
2023/10/23 07:26:33;;;;;;;7.13;6.43;;;7.50;99.90;;;;;;5015942;28;20034;-93
2023/10/23 07:28:59;;;;;;;8.10;5.18;;;7.50;99.90;;;;;;4998489;28;20588;-91
2023/10/23 07:31:25;;;;;;;6.15;5.63;;;7.60;99.90;;;;;;4990177;28;20052;-91
2023/10/23 07:33:50;;;;;;;6.88;6.18;;;7.70;99.90;;;;;;4999626;28;20057;-88
2023/10/23 07:36:18;;;;;;;5.20;3.60;;;7.70;99.90;;;;;;5003537;28;20441;-91
2023/10/23 07:38:46;;;;;;;8.40;6.32;;;7.70;99.90;;;;;;4996325;28;20046;-91
2023/10/23 07:41:13;;;;;;;7.85;6.80;;;7.80;99.90;;;;;;5013596;28;20160;-92
2023/10/23 07:43:39;;;;;;;6.85;6.15;;;7.90;99.90;;;;;;4999735;28;20027;-91
2023/10/23 07:46:06;;;;;;;6.28;5.68;;;7.90;99.90;;;;;;5000341;28;20033;-90
2023/10/23 07:48:32;;;;;;;6.85;6.25;;;7.90;99.90;;;;;;4999602;28;20028;-92
2023/10/23 07:50:59;;;;;;;7.70;7.10;;;7.90;99.90;;;;;;5018048;28;20033;-91
2023/10/23 07:53:28;;;;;;;6.85;6.25;;;8.00;99.90;;;;;;4997453;28;20082;-91
2023/10/23 07:55:54;;;;;;;8.35;7.55;;;8.00;99.90;;;;;;4996759;28;20068;-91
2023/10/23 07:58:19;;;;;;;8.77;5.57;;;8.00;99.90;;;;;;4996349;28;20049;-90
2023/10/23 08:00:45;;;;;;;7.20;6.03;;;8.10;99.90;;;;;;4996941;28;20074;-91
2023/10/23 08:03:20;;;;;;;7.88;7.00;;;8.10;99.90;;;;;;4989969;28;20118;-92
2023/10/23 08:05:46;;;;;;;7.80;7.10;;;8.10;99.90;;;;;;5016453;28;20080;-90
2023/10/23 08:08:12;;;;;;;10.05;7.90;;;8.20;99.90;;;;;;4997606;28;20034;-91
2023/10/23 08:10:40;;;;;;;8.85;7.90;;;8.20;99.90;;;;;;5008189;28;20022;-92
2023/10/23 08:13:06;;;;;;;;;;;8.30;99.90;;;;;;4991752;28;20037;-91
2023/10/23 08:15:31;;;;;;;8.13;7.47;;;8.30;99.90;;;;;;4985895;28;19948;-91
2023/10/23 08:17:57;;;;;;;7.15;6.57;;;8.30;99.90;;;;;;4996318;28;20030;-91
2023/10/23 08:20:22;;;;;;;6.65;6.05;;;8.30;99.90;;;;;;4995206;28;20018;-91
2023/10/23 08:22:49;;;;;;;8.77;7.97;;;8.40;99.90;;;;;;5000027;28;20065;-92
2023/10/23 08:25:15;;;;;;;6.85;6.13;;;8.50;99.90;;;;;;5019788;28;20017;-94
2023/10/23 08:27:41;;;;;;;7.30;6.63;;;8.50;99.90;;;;;;5010665;28;20030;-92
2023/10/23 08:30:07;;;;;;;10.43;7.22;;;8.50;99.90;;;;;;5013981;28;20034;-90
2023/10/23 08:32:36;;;;;;;7.60;6.95;;;8.60;99.90;;;;;;5008207;28;20030;-91
2023/10/23 08:35:02;;;;;;;8.50;7.72;;;8.60;99.90;;;;;;4990233;28;20129;-91
2023/10/23 08:37:28;;;;;;;9.88;7.10;;;8.70;99.90;;;;;;4997367;28;20094;-89
2023/10/23 08:39:54;;;;;;;7.97;7.38;;;8.80;99.90;;;;;;4988568;28;20052;-91
2023/10/23 08:42:21;;;;;;;10.38;8.45;;;8.90;99.90;;;;;;5001629;28;20109;-91
2023/10/23 08:44:50;;;;;;;11.35;8.45;;;9.00;99.90;;;;;;4997322;28;20023;-90
2023/10/23 08:47:16;;;;;;;8.90;7.30;;;9.10;99.90;;;;;;4997927;28;20025;-92
2023/10/23 08:49:41;;;;;;;8.20;6.65;;;9.10;99.90;;;;;;5007637;28;20502;-90
2023/10/23 08:52:11;;;;;;;7.13;4.78;;;9.20;99.90;;;;;;4997412;28;20487;-91
2023/10/23 08:54:37;;;;;;;8.07;7.45;;;9.20;99.90;;;;;;5006995;28;20058;-92
2023/10/23 08:57:07;;;;;;;8.27;7.47;;;9.20;99.90;;;;;;4996139;28;20122;-91
2023/10/23 08:59:32;;;;;;;7.78;6.78;;;9.30;99.90;;;;;;5017230;28;20049;-91
2023/10/23 09:02:09;;;;;;;8.50;6.60;;;9.40;99.90;;;;;;5021918;28;20022;-91
2023/10/23 09:04:35;;;;;;;8.63;7.85;;;9.50;99.90;;;;;;5007307;28;20048;-91
2023/10/23 09:07:01;;;;;;;7.95;7.35;;;9.50;99.90;;;;;;5000560;28;20101;-91
2023/10/23 09:09:27;;;;;;;12.00;5.57;;;9.60;99.90;;;;;;4996304;28;20428;-90
2023/10/23 09:11:52;;;;;;;8.13;7.30;;;9.60;99.90;;;;;;5006571;28;20056;-90
2023/10/23 09:14:23;;;;;;;7.57;6.30;;;9.60;99.90;;;;;;5018762;28;20030;-91
2023/10/23 09:16:51;;;;;;;10.75;7.32;;;9.70;99.90;;;;;;4976071;28;20615;-91
2023/10/23 09:19:36;;;;;;;9.55;7.40;;;9.80;99.90;;;;;;4998868;28;20030;-93
2023/10/23 09:22:04;;;;;;;7.85;6.82;;;9.90;99.90;;;;;;4980619;28;20022;-91
2023/10/23 09:24:31;;;;;;;7.55;6.85;;;9.90;99.90;;;;;;4993106;28;20097;-91
2023/10/23 09:26:56;;;;;;;9.13;8.27;;;9.90;99.90;;;;;;5013538;28;20036;-90
2023/10/23 09:29:26;;;;;;;7.55;6.82;;;10.00;99.90;;;;;;5014647;28;20023;-92
2023/10/23 09:31:55;;;;;;;8.80;7.53;;;10.10;99.90;;;;;;4982795;28;20023;-89
2023/10/23 09:34:21;;;;;;;8.25;7.57;;;10.20;99.90;;;;;;5012880;28;20026;-91
2023/10/23 09:36:50;;;;;;;8.40;6.97;;;10.30;99.90;;;;;;5019251;28;20218;-95
2023/10/23 09:39:17;;;;;;;8.80;5.85;;;10.40;99.90;;;;;;5018783;28;20033;-92
2023/10/23 09:41:44;;;;;;;6.95;6.32;;;10.50;99.90;;;;;;5020864;28;20023;-93
2023/10/23 09:44:12;;;;;;;7.88;5.65;;;10.50;99.90;;;;;;5015547;28;20037;-91
2023/10/23 09:46:38;;;;;;;11.38;5.65;;;10.60;99.90;;;;;;5028533;28;20022;-92
2023/10/23 09:49:05;;;;;;;5.47;4.93;;;10.70;99.90;;;;;;5015597;28;20115;-89
2023/10/23 09:51:38;;;;;;;6.50;5.90;;;10.80;99.90;;;;;;5028607;28;20038;-90
2023/10/23 09:54:11;;;;;;;5.78;5.35;;;10.70;99.90;;;;;;5012147;28;20037;-92
2023/10/23 09:56:39;;;;;;;7.50;6.80;;;10.80;99.90;;;;;;5028944;28;20042;-91
2023/10/23 09:59:08;;;;;;;7.22;6.53;;;10.80;99.90;;;;;;5021573;28;20090;-90
2023/10/23 10:01:41;;;;;;;7.47;5.28;;;10.90;99.90;;;;;;5028404;28;20582;-90
2023/10/23 10:04:33;;;;;;;7.22;5.93;;;10.90;99.60;;;;;;5019298;28;20026;-88
2023/10/23 10:07:13;;;;;;;6.93;5.97;;;10.90;99.80;;;;;;5015680;28;20021;-91
2023/10/23 10:09:41;;;;;;;8.70;6.95;;;11.10;99.80;;;;;;5010023;28;20072;-92
2023/10/23 10:12:10;;;;;;;15.45;7.20;;;11.10;99.60;;;;;;5021974;28;20050;-91
2023/10/23 10:14:40;;;;;;;9.27;8.48;;;11.20;98.80;;;;;;4987296;28;20022;-91
2023/10/23 10:17:06;;;;;;;7.70;6.25;;;11.20;98.70;;;;;;4998682;28;20038;-91
2023/10/23 10:19:34;;;;;;;9.52;8.65;;;11.30;99.10;;;;;;4982272;28;20026;-91
2023/10/23 10:22:11;;;;;;;7.57;6.88;;;11.30;98.90;;;;;;5000428;28;20017;-90
2023/10/23 10:24:40;;;;;;;5.80;5.18;;;11.40;98.40;;;;;;5013867;28;20026;-90
2023/10/23 10:27:07;;;;;;;7.93;7.13;;;11.40;97.90;;;;;;4998720;28;20029;-92
2023/10/23 10:29:36;;;;;;;7.40;6.70;;;11.40;98.10;;;;;;4977562;28;20041;-91
2023/10/23 10:32:06;;;;;;;8.00;5.47;;;11.40;98.40;;;;;;4995316;28;20034;-89
2023/10/23 10:34:34;;;;;;;7.15;6.03;;;11.50;98.50;;;;;;5003159;28;20045;-92
2023/10/23 10:37:00;;;;;;;7.65;6.13;;;11.50;98.40;;;;;;4984761;28;20129;-92
2023/10/23 10:39:55;;;;;;;6.97;5.75;;;11.50;98.20;;;;;;4981984;28;20023;-91
2023/10/23 10:42:23;;;;;;;7.25;6.45;;;11.50;98.10;;;;;;4970239;28;20041;-92
2023/10/23 10:44:57;;;;;;;6.00;5.43;;;11.50;97.70;;;;;;4982709;28;20030;-92
2023/10/23 10:47:41;;;;;;;7.03;6.28;;;11.60;97.60;;;;;;4999363;28;20034;-91
2023/10/23 10:50:07;;;;;;;7.63;5.93;;;11.70;97.70;;;;;;5009236;28;20052;-91
2023/10/23 10:52:38;;;;;;;9.48;5.95;;;11.80;97.50;;;;;;4993985;28;20034;-92
2023/10/23 10:55:07;;;;;;;12.85;5.80;;;11.90;97.10;;;;;;4999609;28;20033;-91
2023/10/23 10:57:34;;;;;;;5.97;5.25;;;12.00;96.10;;;;;;4998930;28;20022;-93
2023/10/23 11:00:03;;;;;;;7.30;6.15;;;12.10;95.90;;;;;;4988981;28;20038;-91
2023/10/23 11:02:31;;;;;;;17.40;11.63;;;12.20;95.00;;;;;;5010429;28;20034;-91
2023/10/23 11:05:12;;;;;;;8.93;7.90;;;12.40;94.50;;;;;;5002619;28;20031;-92
2023/10/23 11:07:38;;;;;;;9.98;7.68;;;12.40;93.30;;;;;;5001010;28;20599;-93
2023/10/23 11:10:10;;;;;;;7.82;6.35;;;12.50;93.40;;;;;;5006705;28;20109;-91
2023/10/23 11:12:36;;;;;;;5.90;4.60;;;12.60;93.30;;;;;;4997326;28;20389;-92
2023/10/23 11:15:04;;;;;;;8.20;6.50;;;12.70;92.40;;;;;;4994738;28;20029;-89
2023/10/23 11:17:30;;;;;;;6.22;5.72;;;12.70;91.20;;;;;;4996596;28;20077;-92
2023/10/23 11:19:56;;;;;;;5.85;4.30;;;12.90;90.90;;;;;;4997311;28;20068;-91
2023/10/23 11:22:21;;;;;;;5.13;4.50;;;12.90;90.40;;;;;;4995935;28;20023;-92
2023/10/23 11:24:47;;;;;;;5.93;5.28;;;13.00;89.70;;;;;;4998704;28;20508;-93
2023/10/23 11:27:13;;;;;;;7.10;5.00;;;13.10;89.60;;;;;;4978954;28;20023;-91
2023/10/23 11:29:47;;;;;;;7.38;5.75;;;13.20;88.50;;;;;;4999179;28;20026;-92
2023/10/23 11:32:20;;;;;;;7.20;5.97;;;13.10;87.80;;;;;;5010348;28;20030;-93
2023/10/23 11:34:47;;;;;;;8.23;5.93;;;13.00;88.10;;;;;;5018581;28;20022;-92
2023/10/23 11:37:13;;;;;;;7.70;5.03;;;13.00;88.80;;;;;;5018584;28;20029;-91
2023/10/23 11:39:42;;;;;;;12.75;4.72;;;13.10;89.50;;;;;;5003408;28;20073;-91
2023/10/23 11:42:09;;;;;;;5.53;5.03;;;13.00;89.50;;;;;;4997501;28;20075;-91
2023/10/23 11:44:41;;;;;;;5.95;4.50;;;13.00;89.10;;;;;;4995945;28;20021;-91
2023/10/23 11:47:07;;;;;;;5.65;3.85;;;13.00;89.00;;;;;;5017245;28;20030;-91
2023/10/23 11:49:36;;;;;;;4.30;3.60;;;13.00;88.10;;;;;;5017859;28;20060;-92
2023/10/23 11:52:03;;;;;;;5.15;4.40;;;12.90;89.20;;;;;;5009152;28;20519;-92
2023/10/23 11:54:28;;;;;;;8.25;5.05;;;12.90;89.50;;;;;;4998848;28;20524;-91
2023/10/23 11:57:05;;;;;;;7.25;3.88;;;12.90;89.90;;;;;;5010230;28;20062;-92
2023/10/23 11:59:40;;;;;;;3.80;3.50;;;12.90;89.30;;;;;;5017421;28;20032;-91
2023/10/23 12:02:06;;;;;;;4.28;3.97;;;12.90;90.60;;;;;;5018098;28;20026;-89
2023/10/23 12:04:35;;;;;;;6.07;5.57;;;12.90;91.50;;;;;;5011234;28;20050;-91
2023/10/23 12:07:01;;;;;;;7.75;6.78;;;13.00;92.30;;;;;;4988476;28;20041;-93
2023/10/23 12:09:30;;;;;;;6.35;5.07;;;13.00;92.80;;;;;;4997951;28;20035;-91
2023/10/23 12:11:56;;;;;;;4.45;3.45;;;13.00;93.30;;;;;;5017481;28;20077;-92
2023/10/23 12:14:21;;;;;;;5.70;3.45;;;13.10;94.10;;;;;;5016724;28;20042;-92
2023/10/23 12:16:47;;;;;;;6.60;4.90;;;13.10;94.60;;;;;;5014438;28;20077;-91
2023/10/23 12:19:19;;;;;;;6.65;5.95;;;13.20;96.20;;;;;;5004606;28;20062;-91
2023/10/23 12:21:45;;;;;;;4.57;3.78;;;13.20;96.80;;;;;;4978949;28;20076;-92
2023/10/23 12:24:10;;;;;;;4.82;2.88;;;13.20;96.60;;;;;;5000646;28;20054;-89
2023/10/23 12:26:36;;;;;;;5.20;3.67;;;13.30;97.60;;;;;;4979946;28;20062;-91
2023/10/23 12:29:05;;;;;;;6.28;4.05;;;13.20;98.50;;;;;;4988412;28;20057;-91
2023/10/23 12:31:33;;;;;;;5.43;3.97;;;13.20;99.60;;;;;;5013107;28;20030;-90
2023/10/23 12:33:58;;;;;;;4.70;4.07;;;13.20;98.20;;;;;;4997748;28;20030;-87
2023/10/23 12:36:24;;;;;;;4.35;3.95;;;13.10;97.20;;;;;;4983323;28;20030;-93
2023/10/23 12:38:50;;;;;;;3.47;3.28;;;13.00;98.80;;;;;;4998387;28;20026;-92
2023/10/23 12:41:18;;;;;;;6.15;2.72;;;13.00;98.30;;;;;;5020580;28;20537;-88
2023/10/23 12:43:45;;;;;;;5.47;4.13;;;12.90;98.70;;;;;;5004192;28;20037;-91
2023/10/23 12:46:11;;;;;;;5.45;4.25;;;12.90;98.30;;;;;;5023760;28;20030;-91
2023/10/23 12:48:41;;;;;;;6.28;4.20;;;13.00;98.40;;;;;;5020117;28;20025;-92
2023/10/23 12:51:07;;;;;;;4.10;2.72;;;13.00;99.30;;;;;;4985165;28;20030;-90